Rencontre East, Canada
Current Conditions -  °F | °C
As of 7:00 PM on Sunday 19 Oct 2014 (Local Time) from LFVP Reporting Station
Haze Haze  
Wind Chill: 55°   Ceiling: 500
Heat Index: 55°   Visibility: 2.1mi
Dew Point: 54°   Wind: 8mph
Humidity: 94%   Direction: 180°S
Pressure: 29.77"   Gusts: NA
Location:  47.65°N, 55.23°W
Report Text: LFVP 192100Z 18007KT 3500 BR BKN005 13/12 Q1008 NOSIG
Loading
Personal Weather Stations






























Interactive Weather Map
Tropical Storm Tracking
New forecast layout! Learn more

10-Day Weather Forecast

Advertisements
Track Severe Weather on mobile